createdAt,value
2018-09-10T00:01:49.676Z,80.60
2018-09-10T00:04:24.428Z,81.26
2018-09-10T00:06:59.520Z,80.88
2018-09-10T00:09:33.892Z,81.49
2018-09-10T00:12:08.328Z,81.82
2018-09-10T00:14:42.832Z,81.25
2018-09-10T00:17:17.361Z,81.24
2018-09-10T00:19:51.653Z,81.07
2018-09-10T00:22:26.432Z,80.83
2018-09-10T00:25:00.873Z,81.38
2018-09-10T00:27:35.332Z,80.24
2018-09-10T00:30:10.580Z,80.57
2018-09-10T00:32:45.116Z,80.56
2018-09-10T00:35:20.047Z,80.47
2018-09-10T00:37:54.394Z,81.13
2018-09-10T00:40:28.729Z,81.18
2018-09-10T00:43:03.225Z,80.55
2018-09-10T00:45:37.721Z,81.18
2018-09-10T00:48:12.049Z,80.44
2018-09-10T00:50:46.844Z,81.29
2018-09-10T00:53:21.348Z,80.50
2018-09-10T00:55:56.308Z,80.93
2018-09-10T00:58:30.848Z,80.57
2018-09-10T01:01:05.465Z,81.06
2018-09-10T01:03:40.041Z,81.41
2018-09-10T01:06:14.720Z,81.15
2018-09-10T01:08:49.244Z,81.07
2018-09-10T01:11:24.082Z,80.80
2018-09-10T01:13:58.848Z,80.57
2018-09-10T01:16:33.155Z,80.22
2018-09-10T01:19:07.884Z,80.65
2018-09-10T01:21:42.992Z,81.86
2018-09-10T01:24:17.380Z,81.29
2018-09-10T01:26:52.316Z,80.47
2018-09-10T01:29:26.628Z,80.46
2018-09-10T01:32:01.108Z,80.27
2018-09-10T01:34:40.812Z,80.54
2018-09-10T01:37:15.132Z,80.59
2018-09-10T01:39:49.408Z,80.50
2018-09-10T01:42:23.749Z,80.55
2018-09-10T01:44:59.064Z,81.00
2018-09-10T01:47:33.544Z,81.56
2018-09-10T01:50:08.172Z,81.19
2018-09-10T01:52:42.608Z,81.33
2018-09-10T01:55:16.869Z,81.42
2018-09-10T01:57:51.520Z,80.69
2018-09-10T02:00:25.928Z,81.12
2018-09-10T02:03:00.205Z,81.21
2018-09-10T02:05:35.248Z,81.98
2018-09-10T02:08:09.625Z,81.27
2018-09-10T02:10:44.557Z,81.26
2018-09-10T02:13:19.171Z,80.92
2018-09-10T02:15:53.709Z,81.09
2018-09-10T02:18:27.951Z,81.76
2018-09-10T02:21:02.468Z,81.41
2018-09-10T02:23:36.870Z,80.70
2018-09-10T02:26:12.281Z,80.64
2018-09-10T02:28:46.856Z,81.41
2018-09-10T02:31:21.632Z,80.78
2018-09-10T02:33:56.665Z,81.04
2018-09-10T02:36:31.034Z,82.17
2018-09-10T02:39:06.909Z,81.73
2018-09-10T02:41:43.905Z,81.05
2018-09-10T02:44:18.267Z,81.68
2018-09-10T02:46:52.728Z,81.85
2018-09-10T02:49:27.521Z,81.16
2018-09-10T02:52:03.564Z,80.76
2018-09-10T02:54:38.105Z,82.06
2018-09-10T02:57:13.035Z,82.13
2018-09-10T02:59:47.343Z,82.47
2018-09-10T03:02:21.856Z,82.88
2018-09-10T03:04:56.424Z,83.01
2018-09-10T03:07:31.316Z,82.96
2018-09-10T03:10:05.932Z,83.85
2018-09-10T03:12:40.268Z,82.93
2018-09-10T03:15:14.634Z,82.80
2018-09-10T03:17:49.062Z,81.93
2018-09-10T03:20:23.616Z,81.66
2018-09-10T03:22:58.319Z,81.93
2018-09-10T03:25:32.672Z,82.00
2018-09-10T03:28:06.926Z,81.54
2018-09-10T03:30:41.266Z,81.49
2018-09-10T03:33:16.012Z,81.20
2018-09-10T03:35:50.364Z,81.70
2018-09-10T03:38:24.918Z,81.67
2018-09-10T03:40:59.442Z,81.50
2018-09-10T03:43:34.297Z,82.09
2018-09-10T03:46:08.744Z,81.12
2018-09-10T03:48:43.522Z,81.70
2018-09-10T03:51:17.824Z,81.65
2018-09-10T03:53:52.241Z,82.02
2018-09-10T03:56:27.263Z,81.49
2018-09-10T03:59:01.764Z,82.15
2018-09-10T04:01:36.521Z,82.70
2018-09-10T04:04:11.451Z,82.39
2018-09-10T04:06:46.732Z,83.35
2018-09-10T04:09:21.080Z,83.45
2018-09-10T04:11:55.669Z,82.85
2018-09-10T04:14:30.032Z,82.07
2018-09-10T04:17:05.132Z,83.04
2018-09-10T04:19:40.128Z,83.21
2018-09-10T04:22:14.999Z,81.89
2018-09-10T04:24:49.404Z,82.55
2018-09-10T04:27:24.020Z,82.24
2018-09-10T04:29:58.439Z,81.58
2018-09-10T04:32:32.930Z,81.79
2018-09-10T04:35:08.036Z,81.83
2018-09-10T04:37:42.463Z,81.50
2018-09-10T04:40:16.976Z,81.62
2018-09-10T04:42:51.411Z,81.80
2018-09-10T04:45:26.073Z,82.46
2018-09-10T04:48:00.481Z,82.47
2018-09-10T04:50:35.333Z,82.93
2018-09-10T04:53:09.675Z,83.93
2018-09-10T04:55:44.349Z,84.18
2018-09-10T04:58:19.317Z,84.27
2018-09-10T05:00:53.632Z,83.70
2018-09-10T05:03:28.024Z,84.31
2018-09-10T05:06:02.377Z,83.53
2018-09-10T05:08:36.817Z,83.28
2018-09-10T05:11:11.801Z,84.52
2018-09-10T05:13:46.461Z,84.26
2018-09-10T05:16:21.291Z,84.04
2018-09-10T05:18:55.717Z,84.27
2018-09-10T05:21:30.274Z,84.54
2018-09-10T05:24:04.980Z,84.07
2018-09-10T05:26:39.382Z,84.00
2018-09-10T05:29:13.888Z,83.75
2018-09-10T05:31:48.344Z,84.20
2018-09-10T05:34:22.648Z,84.29
2018-09-10T05:36:57.305Z,83.76
2018-09-10T05:39:31.783Z,84.22
2018-09-10T05:42:06.480Z,83.59
2018-09-10T05:44:40.937Z,84.02
2018-09-10T05:47:15.243Z,83.63
2018-09-10T05:49:49.572Z,83.60
2018-09-10T05:52:23.983Z,83.96
2018-09-10T05:54:58.900Z,84.29
2018-09-10T05:57:33.459Z,85.15
2018-09-10T06:00:09.049Z,85.42
2018-09-10T06:02:43.848Z,85.23
2018-09-10T06:05:18.583Z,85.13
2018-09-10T06:07:53.678Z,85.45
2018-09-10T06:10:28.613Z,85.65
2018-09-10T06:13:03.705Z,86.17
2018-09-10T06:15:38.530Z,85.71
2018-09-10T06:18:12.926Z,85.10
2018-09-10T06:20:47.253Z,85.89
2018-09-10T06:23:21.860Z,85.77
2018-09-10T06:25:56.791Z,85.90
2018-09-10T06:28:31.723Z,85.79
2018-09-10T06:31:06.364Z,85.54
2018-09-10T06:33:41.824Z,85.39
2018-09-10T06:36:16.303Z,84.94
2018-09-10T06:38:51.093Z,85.06
2018-09-10T06:41:25.402Z,84.87
2018-09-10T06:44:00.036Z,84.50
2018-09-10T06:46:34.837Z,84.14
2018-09-10T06:49:09.312Z,84.75
2018-09-10T06:51:43.799Z,83.94
2018-09-10T06:54:18.069Z,83.48
2018-09-10T06:56:52.396Z,83.08
2018-09-10T06:59:26.885Z,82.68
2018-09-10T07:02:01.724Z,83.15
2018-09-10T07:04:36.537Z,83.30
2018-09-10T07:07:11.072Z,82.31
2018-09-10T07:09:45.368Z,82.59
2018-09-10T07:12:19.671Z,82.54
2018-09-10T07:14:53.928Z,82.53
2018-09-10T07:17:28.420Z,82.50
2018-09-10T07:20:03.793Z,81.57
2018-09-10T07:22:38.249Z,80.94
2018-09-10T07:25:12.595Z,80.04
2018-09-10T07:27:47.067Z,80.51
2018-09-10T07:30:21.980Z,81.32
2018-09-10T07:32:56.324Z,79.98
2018-09-10T07:35:30.693Z,79.68
2018-09-10T07:38:05.637Z,78.96
2018-09-10T07:40:40.143Z,77.64
2018-09-10T07:43:14.756Z,78.01
2018-09-10T07:45:49.148Z,77.93
2018-09-10T07:48:23.585Z,79.02
2018-09-10T07:50:58.464Z,77.88
2018-09-10T07:53:33.288Z,77.40
2018-09-10T07:56:08.004Z,76.44
2018-09-10T07:58:42.700Z,76.30
2018-09-10T08:01:17.452Z,73.00
2018-09-10T08:03:52.232Z,76.87
2018-09-10T08:06:26.566Z,78.46
2018-09-10T08:09:01.248Z,75.10
2018-09-10T08:11:41.151Z,70.59
2018-09-10T08:14:15.511Z,67.78
2018-09-10T08:16:50.032Z,66.86
2018-09-10T08:19:25.712Z,66.03
2018-09-10T08:22:00.464Z,71.28
2018-09-10T08:24:35.256Z,71.29
2018-09-10T08:27:10.428Z,66.15
2018-09-10T08:29:44.955Z,64.48
2018-09-10T08:32:19.487Z,65.65
2018-09-10T08:34:53.992Z,66.12
2018-09-10T08:37:29.337Z,66.91
2018-09-10T08:40:05.182Z,64.52
2018-09-10T08:42:40.541Z,60.21
2018-09-10T08:45:15.601Z,64.95
2018-09-10T08:47:50.920Z,59.03
2018-09-10T08:50:25.408Z,58.22
2018-09-10T08:53:00.314Z,60.49
2018-09-10T08:55:35.058Z,57.30
2018-09-10T08:58:09.832Z,57.62
2018-09-10T09:00:44.636Z,60.28
2018-09-10T09:03:18.992Z,56.24
2018-09-10T09:05:54.102Z,54.53
2018-09-10T09:08:28.948Z,58.51
2018-09-10T09:11:03.684Z,53.05
2018-09-10T09:13:37.997Z,51.98
2018-09-10T09:16:12.720Z,52.61
2018-09-10T09:18:47.757Z,55.72
2018-09-10T09:21:22.648Z,55.56
2018-09-10T09:23:57.352Z,53.36
2018-09-10T09:26:32.232Z,51.35
2018-09-10T09:29:06.788Z,52.54
2018-09-10T09:31:41.231Z,53.97
2018-09-10T09:34:15.696Z,53.26
2018-09-10T09:36:55.873Z,51.46
2018-09-10T09:39:35.645Z,51.22
2018-09-10T09:42:15.512Z,51.77
2018-09-10T09:44:55.625Z,48.03
2018-09-10T09:47:30.182Z,51.89
2018-09-10T09:50:04.604Z,46.40
2018-09-10T09:52:39.165Z,45.44
2018-09-10T09:55:13.957Z,48.49
2018-09-10T09:57:48.368Z,52.75
2018-09-10T10:00:28.100Z,44.62
2018-09-10T10:03:08.050Z,51.38
2018-09-10T10:05:43.912Z,52.06
2018-09-10T10:08:18.824Z,49.73
2018-09-10T10:10:53.120Z,49.36
2018-09-10T10:13:27.467Z,45.75
2018-09-10T10:16:02.083Z,46.30
2018-09-10T10:18:36.687Z,40.40
2018-09-10T10:21:11.046Z,42.51
2018-09-10T10:23:45.342Z,45.20
2018-09-10T10:26:20.150Z,45.62
2018-09-10T10:28:54.646Z,43.01
2018-09-10T10:31:29.156Z,44.52
2018-09-10T10:34:03.825Z,41.34
2018-09-10T10:36:38.120Z,45.56
2018-09-10T10:39:12.930Z,45.90
2018-09-10T10:41:47.875Z,42.46
2018-09-10T10:44:22.243Z,48.35
2018-09-10T10:46:56.716Z,45.81
2018-09-10T10:49:31.151Z,47.37
2018-09-10T10:52:05.900Z,44.73
2018-09-10T10:54:40.343Z,41.31
2018-09-10T10:57:14.664Z,36.63
2018-09-10T10:59:49.006Z,45.12
2018-09-10T11:02:23.372Z,40.48
2018-09-10T11:04:57.667Z,37.67
2018-09-10T11:07:31.968Z,36.78
2018-09-10T11:10:07.072Z,38.35
2018-09-10T11:12:41.533Z,40.98
2018-09-10T11:15:16.126Z,37.66
2018-09-10T11:17:50.442Z,41.31
2018-09-10T11:20:24.700Z,41.09
2018-09-10T11:22:59.211Z,35.68
2018-09-10T11:25:33.801Z,37.57
2018-09-10T11:28:08.584Z,34.58
2018-09-10T11:30:43.688Z,39.35
2018-09-10T11:33:18.184Z,42.70
2018-09-10T11:35:53.766Z,43.13
2018-09-10T11:38:28.105Z,38.29
2018-09-10T11:41:03.172Z,43.58
2018-09-10T11:43:37.840Z,40.19
2018-09-10T11:46:12.324Z,39.81
2018-09-10T11:48:46.699Z,38.39
2018-09-10T11:51:21.393Z,40.27
2018-09-10T11:53:55.731Z,38.49
2018-09-10T11:56:30.133Z,41.54
2018-09-10T11:59:04.779Z,41.40
2018-09-10T12:01:39.251Z,42.85
2018-09-10T12:04:15.587Z,40.67
2018-09-10T12:06:50.193Z,43.84
2018-09-10T12:09:24.578Z,35.96
2018-09-10T12:11:59.033Z,41.45
2018-09-10T12:14:33.723Z,35.78
2018-09-10T12:17:08.212Z,35.73
2018-09-10T12:19:42.903Z,34.52
2018-09-10T12:22:17.511Z,42.90
2018-09-10T12:24:52.149Z,37.31
2018-09-10T12:27:26.764Z,43.24
2018-09-10T12:30:01.516Z,33.50
2018-09-10T12:32:36.279Z,35.41
2018-09-10T12:35:10.701Z,41.86
2018-09-10T12:37:44.980Z,39.66
2018-09-10T12:40:19.757Z,37.54
2018-09-10T12:42:54.174Z,40.56
2018-09-10T12:45:28.689Z,41.95
2018-09-10T12:48:03.334Z,36.27
2018-09-10T12:50:38.104Z,37.61
2018-09-10T12:53:12.592Z,40.82
2018-09-10T12:55:47.009Z,41.15
2018-09-10T12:58:21.856Z,40.07
2018-09-10T13:00:56.120Z,39.30
2018-09-10T13:03:30.410Z,36.51
2018-09-10T13:06:05.177Z,41.66
2018-09-10T13:08:39.977Z,35.96
2018-09-10T13:11:15.000Z,37.85
2018-09-10T13:13:50.007Z,34.58
2018-09-10T13:16:24.677Z,39.37
2018-09-10T13:18:59.240Z,37.67
2018-09-10T13:21:33.740Z,31.06
2018-09-10T13:24:08.611Z,35.30
2018-09-10T13:26:43.534Z,35.39
2018-09-10T13:29:18.351Z,32.44
2018-09-10T13:31:52.859Z,32.43
2018-09-10T13:34:27.409Z,36.32
2018-09-10T13:37:02.601Z,36.98
2018-09-10T13:39:37.448Z,36.75
2018-09-10T13:42:12.048Z,34.49
2018-09-10T13:44:47.172Z,39.85
2018-09-10T13:47:21.973Z,39.79
2018-09-10T13:49:56.488Z,37.31
2018-09-10T13:52:31.224Z,34.79
2018-09-10T13:55:06.057Z,44.11
2018-09-10T13:57:40.480Z,38.11
2018-09-10T14:00:15.625Z,35.52
2018-09-10T14:02:50.185Z,36.26
2018-09-10T14:05:24.523Z,42.00
2018-09-10T14:07:58.977Z,38.45
2018-09-10T14:10:33.867Z,33.50
2018-09-10T14:13:08.540Z,34.10
2018-09-10T14:15:43.249Z,33.88
2018-09-10T14:18:19.225Z,34.72
2018-09-10T14:20:54.340Z,36.73
2018-09-10T14:23:28.870Z,37.22
2018-09-10T14:26:03.695Z,36.50
2018-09-10T14:28:38.484Z,34.11
2018-09-10T14:31:13.483Z,35.83
2018-09-10T14:33:47.915Z,39.35
2018-09-10T14:36:22.348Z,37.36
2018-09-10T14:38:57.088Z,39.44
2018-09-10T14:41:31.994Z,37.52
2018-09-10T14:44:06.981Z,35.57
2018-09-10T14:46:41.424Z,39.29
2018-09-10T14:49:19.798Z,36.47
2018-09-10T14:52:01.158Z,39.12
2018-09-10T14:54:36.992Z,36.25
2018-09-10T14:57:11.688Z,35.18
2018-09-10T14:59:46.675Z,35.56
2018-09-10T15:02:24.430Z,32.82
2018-09-10T15:04:58.867Z,37.25
2018-09-10T15:07:33.546Z,37.93
2018-09-10T15:10:09.081Z,32.88
2018-09-10T15:12:43.557Z,35.81
2018-09-10T15:15:18.385Z,34.60
2018-09-10T15:17:52.825Z,34.85
2018-09-10T15:20:27.697Z,32.20
2018-09-10T15:23:02.780Z,35.00
2018-09-10T15:25:37.442Z,37.30
2018-09-10T15:28:11.968Z,33.45
2018-09-10T15:30:46.480Z,39.91
2018-09-10T15:33:21.416Z,35.99
2018-09-10T15:35:56.033Z,35.59
2018-09-10T15:38:31.042Z,33.92
2018-09-10T15:41:05.999Z,36.19
2018-09-10T15:43:41.355Z,36.53
2018-09-10T15:46:20.424Z,39.26
2018-09-10T15:48:55.431Z,36.42
2018-09-10T15:51:32.070Z,41.11
2018-09-10T15:54:07.091Z,36.87
2018-09-10T15:56:41.872Z,42.16
2018-09-10T15:59:18.472Z,40.12
2018-09-10T16:01:53.137Z,39.04
2018-09-10T16:04:27.576Z,40.02
2018-09-10T16:07:02.175Z,38.24
2018-09-10T16:09:37.332Z,36.08
2018-09-10T16:12:12.328Z,39.87
2018-09-10T16:14:46.857Z,35.69
2018-09-10T16:17:21.427Z,40.30
2018-09-10T16:19:56.626Z,40.82
2018-09-10T16:22:31.639Z,36.61
2018-09-10T16:25:06.767Z,42.12
2018-09-10T16:27:41.921Z,40.19
2018-09-10T16:30:16.636Z,38.56
2018-09-10T16:32:51.090Z,37.85
2018-09-10T16:35:26.107Z,43.10
2018-09-10T16:38:00.495Z,44.00
2018-09-10T16:40:35.004Z,43.61
2018-09-10T16:43:09.772Z,45.24
2018-09-10T16:45:44.173Z,44.43
2018-09-10T16:48:18.676Z,47.45
2018-09-10T16:50:55.379Z,48.06
2018-09-10T16:53:29.688Z,51.00
2018-09-10T16:56:04.171Z,49.11
2018-09-10T16:58:38.871Z,50.89
2018-09-10T17:01:13.862Z,52.84
2018-09-10T17:03:48.704Z,52.85
2018-09-10T17:06:23.253Z,52.19
2018-09-10T17:08:57.814Z,52.96
2018-09-10T17:11:32.780Z,55.43
2018-09-10T17:14:07.545Z,57.42
2018-09-10T17:16:42.204Z,56.10
2018-09-10T17:19:16.597Z,55.58
2018-09-10T17:21:51.473Z,56.51
2018-09-10T17:24:25.935Z,57.72
2018-09-10T17:27:00.488Z,55.27
2018-09-10T17:29:34.832Z,56.31
2018-09-10T17:32:09.583Z,58.45
2018-09-10T17:34:44.326Z,57.83
2018-09-10T17:37:19.578Z,59.43
2018-09-10T17:39:54.444Z,60.03
2018-09-10T17:42:28.835Z,59.63
2018-09-10T17:45:03.594Z,59.37
2018-09-10T17:47:39.413Z,60.99
2018-09-10T17:50:14.961Z,59.04
2018-09-10T17:52:51.439Z,60.53
2018-09-10T17:55:25.844Z,60.84
2018-09-10T17:58:00.829Z,62.46
2018-09-10T18:00:39.442Z,61.93
2018-09-10T18:03:14.130Z,61.56
2018-09-10T18:05:48.480Z,61.63
2018-09-10T18:08:23.424Z,62.49
2018-09-10T18:10:59.321Z,63.24
2018-09-10T18:13:34.220Z,63.95
2018-09-10T18:16:09.019Z,63.78
2018-09-10T18:18:44.946Z,64.15
2018-09-10T18:21:21.091Z,64.16
2018-09-10T18:23:56.180Z,63.86
2018-09-10T18:26:30.820Z,62.81
2018-09-10T18:29:05.750Z,62.99
2018-09-10T18:31:40.333Z,63.13
2018-09-10T18:34:19.954Z,62.69
2018-09-10T18:36:58.709Z,62.18
2018-09-10T18:39:33.308Z,61.99
2018-09-10T18:42:08.160Z,62.38
2018-09-10T18:44:42.752Z,62.29
2018-09-10T18:47:18.889Z,62.14
2018-09-10T18:49:54.650Z,62.94
2018-09-10T18:52:29.093Z,65.29
2018-09-10T18:55:05.658Z,64.44
2018-09-10T18:57:40.577Z,65.65
2018-09-10T19:00:15.392Z,65.35
2018-09-10T19:02:50.852Z,65.06
2018-09-10T19:05:25.136Z,64.82
2018-09-10T19:07:59.534Z,65.87
2018-09-10T19:10:36.550Z,65.34
2018-09-10T19:13:11.220Z,64.43
2018-09-10T19:15:45.628Z,64.75
2018-09-10T19:18:20.548Z,64.31
2018-09-10T19:20:57.108Z,64.54
2018-09-10T19:23:32.113Z,65.10
2018-09-10T19:26:07.060Z,65.40
2018-09-10T19:28:41.474Z,64.84
2018-09-10T19:31:18.127Z,64.71
2018-09-10T19:33:53.247Z,65.12
2018-09-10T19:36:27.629Z,63.83
2018-09-10T19:39:04.043Z,64.32
2018-09-10T19:41:39.361Z,64.69
2018-09-10T19:44:18.850Z,65.54
2018-09-10T19:46:55.024Z,64.95
2018-09-10T19:49:33.633Z,66.06
2018-09-10T19:54:47.876Z,64.80
2018-09-10T19:57:23.766Z,66.15
2018-09-10T20:00:01.295Z,66.17
2018-09-10T20:02:38.374Z,67.12
2018-09-10T20:05:13.212Z,67.36
2018-09-10T20:07:51.586Z,66.19
2018-09-10T20:10:26.160Z,67.68
2018-09-10T20:13:05.105Z,67.07
2018-09-10T20:15:40.020Z,67.18
2018-09-10T20:18:24.816Z,67.06
2018-09-10T20:21:00.711Z,68.00
2018-09-10T20:23:35.270Z,68.23
2018-09-10T20:26:10.447Z,68.02
2018-09-10T20:28:45.348Z,67.71
2018-09-10T20:31:19.971Z,68.33
2018-09-10T20:34:06.499Z,67.92
2018-09-10T20:36:51.068Z,67.72
2018-09-10T20:39:25.544Z,68.05
2018-09-10T20:42:02.324Z,67.46
2018-09-10T20:44:36.936Z,67.64
2018-09-10T20:47:11.538Z,67.09
2018-09-10T20:49:46.195Z,67.58
2018-09-10T20:52:21.677Z,67.17
2018-09-10T20:54:56.216Z,67.73
2018-09-10T20:57:30.958Z,66.91
2018-09-10T21:00:05.483Z,67.88
2018-09-10T21:02:40.064Z,68.05
2018-09-10T21:05:14.523Z,67.94
2018-09-10T21:07:48.968Z,68.00
2018-09-10T21:10:23.690Z,68.39
2018-09-10T21:12:58.463Z,68.71
2018-09-10T21:15:42.704Z,68.25
2018-09-10T21:18:21.175Z,69.04
2018-09-10T21:20:55.839Z,68.26
2018-09-10T21:23:32.617Z,68.00
2018-09-10T21:26:07.977Z,68.46
2018-09-10T21:28:42.463Z,68.41
2018-09-10T21:31:16.995Z,68.60
2018-09-10T21:33:51.764Z,68.94
2018-09-10T21:36:26.113Z,68.74
2018-09-10T21:39:00.943Z,68.98
2018-09-10T21:41:35.993Z,68.30
2018-09-10T21:44:10.937Z,68.88
2018-09-10T21:46:45.983Z,68.62
2018-09-10T21:49:29.067Z,68.79
2018-09-10T21:52:04.168Z,68.89
2018-09-10T21:54:39.234Z,69.18
2018-09-10T21:57:14.787Z,69.22
2018-09-10T21:59:49.723Z,69.78
2018-09-10T22:02:24.460Z,69.49
2018-09-10T22:04:59.016Z,69.19
2018-09-10T22:07:33.458Z,69.56
2018-09-10T22:10:08.335Z,69.19
2018-09-10T22:12:43.212Z,69.04
2018-09-10T22:15:17.974Z,68.93
2018-09-10T22:17:52.799Z,68.61
2018-09-10T22:20:27.832Z,69.39
2018-09-10T22:23:02.428Z,69.16
2018-09-10T22:25:36.947Z,69.54
2018-09-10T22:28:11.657Z,70.54
2018-09-10T22:30:46.300Z,70.06
2018-09-10T22:33:20.979Z,70.31
2018-09-10T22:35:55.483Z,69.26
2018-09-10T22:38:30.416Z,70.16
2018-09-10T22:41:05.497Z,70.20
2018-09-10T22:43:40.248Z,70.52
2018-09-10T22:46:15.056Z,69.73
2018-09-10T22:48:49.734Z,70.02
2018-09-10T22:51:24.294Z,70.42
2018-09-10T22:53:58.836Z,71.04
2018-09-10T22:56:34.107Z,70.50
2018-09-10T22:59:08.535Z,69.72
2018-09-10T23:01:44.338Z,70.13
2018-09-10T23:04:18.780Z,70.86
2018-09-10T23:06:54.427Z,70.78
2018-09-10T23:12:36.310Z,70.72
2018-09-10T23:15:11.704Z,70.23
2018-09-10T23:17:46.215Z,69.73
2018-09-10T23:20:20.655Z,69.89
2018-09-10T23:22:55.340Z,70.23
2018-09-10T23:25:33.225Z,68.97
2018-09-10T23:28:08.096Z,69.89
2018-09-10T23:30:43.066Z,68.43
2018-09-10T23:33:17.375Z,69.24
2018-09-10T23:35:52.080Z,68.26
2018-09-10T23:38:26.511Z,69.21
2018-09-10T23:41:00.955Z,69.94
2018-09-10T23:43:35.432Z,69.45
2018-09-10T23:46:09.889Z,69.27
2018-09-10T23:48:44.654Z,70.18
2018-09-10T23:51:19.000Z,69.25
2018-09-10T23:53:53.746Z,69.57
2018-09-10T23:56:28.703Z,69.24
2018-09-10T23:59:02.995Z,69.55
